Time;durP1;ratioP1;P1;durP2;ratioP2;P2;SDS_P1;SDS_P2;PMS_P1;PMS_P2;Temp;Humidity;BMP_temperature;BMP_pressure;BME280_temperature;BME280_humidity;BME280_pressure;Samples;Min_cycle;Max_cycle;Signal;HPM_P1;HPM_P2
2021/12/23 08:28:16;;;;;;;113.35;62.10;;;13.10;2201.60;;;;;;4900160;29;20060;-80
2021/12/23 08:30:49;;;;;;;114.03;63.10;;;13.00;2201.60;;;;;;4830529;29;20046;-78
2021/12/23 08:34:00;;;;;;;113.80;64.40;;;0.00;2201.60;;;;;;4831127;29;20058;-80
2021/12/23 08:37:30;;;;;;;111.15;60.83;;;0.10;2201.60;;;;;;4801981;30;20040;-80
2021/12/23 08:40:20;;;;;;;126.47;73.25;;;0.30;2201.60;;;;;;4792619;29;20039;-80
2021/12/23 08:42:53;;;;;;;122.40;63.17;;;0.20;2201.60;;;;;;4809869;30;20045;-79
2021/12/23 08:45:45;;;;;;;112.78;61.50;;;0.70;2201.60;;;;;;4824038;29;20055;-80
2021/12/23 09:02:58;;;;;;;95.82;56.22;;;26.40;2201.60;;;;;;4970523;23;20052;-79
2021/12/23 10:00:39;;;;;;;77.80;49.10;;;76.80;2227.20;;;;;;4957572;29;20064;-79
2021/12/23 10:11:01;;;;;;;72.75;44.17;;;52.10;2227.20;;;;;;4759887;29;20035;-80
2021/12/23 10:31:22;;;;;;;68.10;42.03;;;76.80;2227.20;;;;;;4687275;30;20044;-80
2021/12/23 10:50:57;;;;;;;68.63;39.93;;;76.90;2227.20;;;;;;5184144;23;20314;-81
2021/12/23 11:03:42;;;;;;;63.47;40.10;;;76.80;2227.20;;;;;;5150906;23;20046;-80
2021/12/23 11:07:14;;;;;;;78.88;43.90;;;76.90;2227.20;;;;;;4844715;29;20271;-79
2021/12/23 11:11:30;;;;;;;81.97;44.30;;;77.00;2227.20;;;;;;4790380;30;20061;-80
2021/12/23 11:37:54;;;;;;;59.53;33.92;;;52.10;2227.20;;;;;;4582546;31;20056;-81
2021/12/23 11:44:34;;;;;;;54.65;33.42;;;76.80;2227.20;;;;;;4537916;31;20101;-81
2021/12/23 12:02:42;;;;;;;58.97;35.33;;;52.10;2227.20;;;;;;4826256;29;20042;-81
2021/12/23 12:05:48;;;;;;;61.85;36.72;;;52.10;2227.20;;;;;;4818546;29;20047;-81
2021/12/23 12:09:27;;;;;;;53.97;33.42;;;52.10;2227.20;;;;;;4701705;30;20061;-81
2021/12/23 12:12:48;;;;;;;59.53;35.63;;;51.90;2227.20;;;;;;4671845;30;20101;-80
2021/12/23 12:16:44;;;;;;;57.47;32.70;;;51.90;2227.20;;;;;;4645431;30;20028;-81
2021/12/23 12:51:42;;;;;;;50.73;32.83;;;51.90;2227.20;;;;;;5622886;23;20056;-81
2021/12/23 13:16:26;;;;;;;44.28;29.63;;;52.00;2227.20;;;;;;5977213;23;20035;-79
2021/12/23 13:27:44;;;;;;;56.63;35.43;;;52.00;2227.20;;;;;;5157056;23;20037;-80
2021/12/23 13:36:52;;;;;;;54.20;31.70;;;51.90;2227.20;;;;;;5831817;23;20079;31
2021/12/23 13:48:51;;;;;;;65.63;38.27;;;51.90;2227.20;;;;;;6032815;23;20638;31
2021/12/23 13:51:30;;;;;;;51.80;30.77;;;51.90;2227.20;;;;;;4907352;29;20081;-79
2021/12/23 13:54:11;;;;;;;57.22;33.13;;;52.00;2227.20;;;;;;4891123;29;20489;-79
2021/12/23 13:56:39;;;;;;;54.92;31.58;;;52.00;2227.20;;;;;;4885063;29;20072;-79
2021/12/23 13:59:17;;;;;;;56.53;33.13;;;51.90;2227.20;;;;;;4890224;29;20033;-79
2021/12/23 14:01:59;;;;;;;46.80;29.77;;;51.90;2227.20;;;;;;4874244;29;20037;-79
2021/12/23 14:04:37;;;;;;;44.08;27.90;;;51.90;2227.20;;;;;;4890728;29;20112;-79
2021/12/23 14:07:23;;;;;;;51.78;31.52;;;51.90;2227.20;;;;;;4888116;29;20044;-79
2021/12/23 14:10:02;;;;;;;41.20;25.73;;;51.90;2227.20;;;;;;4871270;29;20037;-79
2021/12/23 14:12:52;;;;;;;44.92;25.77;;;51.90;2227.20;;;;;;4869698;29;20060;-79
2021/12/23 14:15:21;;;;;;;48.05;27.60;;;51.90;2227.20;;;;;;4867679;29;20029;-78
2021/12/23 14:17:49;;;;;;;52.58;29.90;;;52.00;2227.20;;;;;;4869228;29;20044;-79
2021/12/23 14:23:14;;;;;;;42.67;26.15;;;52.00;2227.20;;;;;;4901026;29;20097;-79
2021/12/23 14:26:03;;;;;;;45.33;26.67;;;52.00;2227.20;;;;;;4905000;29;20064;-79
2021/12/23 14:28:42;;;;;;;47.75;26.45;;;52.00;2227.20;;;;;;4887529;29;20396;-78
2021/12/23 14:31:19;;;;;;;48.63;29.20;;;52.00;2227.20;;;;;;4897999;29;20032;-79
2021/12/23 14:33:53;;;;;;;48.10;30.33;;;52.00;2227.20;;;;;;4902875;29;20037;-79
2021/12/23 14:36:25;;;;;;;46.55;27.00;;;52.00;2227.20;;;;;;4896003;29;20040;-79
2021/12/23 14:39:01;;;;;;;43.28;28.70;;;52.00;2227.20;;;;;;4884782;29;20496;-79
2021/12/23 14:41:51;;;;;;;46.58;25.95;;;52.00;2227.20;;;;;;4890500;29;20048;-79
2021/12/23 14:44:21;;;;;;;40.38;25.42;;;52.00;2227.20;;;;;;4890065;29;20028;-79
2021/12/23 14:47:04;;;;;;;42.40;27.40;;;52.00;2227.20;;;;;;4892573;29;20189;-79
2021/12/23 14:52:16;;;;;;;47.20;28.02;;;52.00;2227.20;;;;;;4895023;29;20510;-78
2021/12/23 14:54:52;;;;;;;58.17;33.67;;;52.00;2227.20;;;;;;4891728;29;20037;-78
2021/12/23 14:57:22;;;;;;;60.80;32.17;;;52.00;2227.20;;;;;;4888693;29;20032;-79
2021/12/23 14:59:56;;;;;;;47.97;31.10;;;52.00;2227.20;;;;;;4908609;29;20037;-79
2021/12/23 15:02:26;;;;;;;48.88;29.55;;;52.00;2227.20;;;;;;4913106;29;20112;-80
2021/12/23 15:05:16;;;;;;;54.20;31.25;;;52.00;2227.20;;;;;;4877876;29;20037;-81
2021/12/23 15:07:54;;;;;;;40.13;24.98;;;52.10;2227.20;;;;;;4910516;29;20084;-79
2021/12/23 15:10:44;;;;;;;47.15;28.85;;;52.10;2227.20;;;;;;4901694;29;20065;-80
2021/12/23 15:13:45;;;;;;;46.20;26.52;;;52.10;2227.20;;;;;;4901617;29;20017;-79
2021/12/23 15:16:44;;;;;;;44.08;26.35;;;52.10;2227.20;;;;;;4852587;29;20030;-79
2021/12/23 15:19:35;;;;;;;51.13;28.95;;;52.10;2227.20;;;;;;4863378;29;20045;-79
2021/12/23 15:22:26;;;;;;;54.33;30.30;;;52.10;2227.20;;;;;;4864540;29;20038;-80
2021/12/23 15:25:10;;;;;;;43.70;26.90;;;52.10;2227.20;;;;;;4861270;29;20093;-79
2021/12/23 15:27:41;;;;;;;46.70;27.33;;;52.10;2227.20;;;;;;4861417;29;20037;-79
2021/12/23 15:30:23;;;;;;;52.97;30.75;;;52.10;2227.20;;;;;;4849401;29;20040;-80
2021/12/23 15:33:06;;;;;;;67.80;37.30;;;52.10;2227.20;;;;;;4858993;29;20086;-82
2021/12/23 15:35:35;;;;;;;52.30;32.20;;;52.10;2227.20;;;;;;4858007;29;20042;-79
2021/12/23 15:38:04;;;;;;;55.40;33.58;;;52.10;2227.20;;;;;;4838448;29;20034;-79
2021/12/23 15:40:36;;;;;;;50.83;30.85;;;52.10;2227.20;;;;;;4845461;29;20113;-79
2021/12/23 15:43:10;;;;;;;57.15;33.65;;;52.10;2227.20;;;;;;4843433;29;20109;-79
2021/12/23 15:45:48;;;;;;;58.85;33.20;;;52.10;2227.20;;;;;;4847331;29;20030;-79
2021/12/23 15:48:51;;;;;;;47.00;29.02;;;52.10;2227.20;;;;;;4844844;29;20022;-80
2021/12/23 15:51:18;;;;;;;47.88;28.50;;;76.80;2227.20;;;;;;4853941;29;20106;-79
2021/12/23 15:54:09;;;;;;;56.17;31.10;;;52.10;2227.20;;;;;;4830835;29;20039;-79
2021/12/23 15:56:37;;;;;;;42.88;29.02;;;52.10;2227.20;;;;;;4829306;29;20091;-80
2021/12/23 15:59:07;;;;;;;49.78;27.67;;;52.10;2227.20;;;;;;4820465;29;20042;-78
2021/12/23 16:01:34;;;;;;;53.83;28.27;;;76.80;2227.20;;;;;;4837370;29;20051;-79
2021/12/23 16:04:13;;;;;;;43.30;27.42;;;76.80;2227.20;;;;;;4824278;29;20038;-79
2021/12/23 16:09:23;;;;;;;55.95;29.90;;;76.80;2227.20;;;;;;4838262;29;20058;-79
2021/12/23 16:11:56;;;;;;;46.97;28.35;;;76.80;2227.20;;;;;;4830036;29;20042;-79
2021/12/23 16:14:31;;;;;;;48.63;25.98;;;76.90;2227.20;;;;;;4846225;29;20038;-79
2021/12/23 16:17:10;;;;;;;44.28;26.63;;;76.80;2227.20;;;;;;4844975;29;20070;-79
2021/12/23 16:19:49;;;;;;;43.45;25.65;;;76.90;2227.20;;;;;;4794144;29;20037;-79
2021/12/23 16:22:15;;;;;;;47.10;28.83;;;76.90;2227.20;;;;;;4798690;29;20039;-79
2021/12/23 16:24:42;;;;;;;48.53;29.73;;;76.90;2227.20;;;;;;4828726;29;20070;-78
2021/12/23 16:27:10;;;;;;;46.83;28.17;;;76.90;2227.20;;;;;;4816028;29;20066;-78
2021/12/23 16:30:15;;;;;;;45.45;26.67;;;76.90;2227.20;;;;;;4831164;29;20087;-78
2021/12/23 16:32:53;;;;;;;50.15;27.05;;;76.90;2227.20;;;;;;4902570;29;20025;-79
2021/12/23 16:35:20;;;;;;;38.50;24.40;;;76.90;2227.20;;;;;;4895365;29;20037;-78
2021/12/23 16:37:47;;;;;;;43.03;25.58;;;76.90;2227.20;;;;;;4902524;29;20032;-78
2021/12/23 16:40:20;;;;;;;47.08;29.13;;;76.90;2227.20;;;;;;4895107;29;20037;-78
2021/12/23 16:42:46;;;;;;;52.70;31.13;;;76.90;2227.20;;;;;;4891932;29;20033;-78
2021/12/23 16:45:16;;;;;;;50.15;31.52;;;76.80;2227.20;;;;;;4900452;29;20488;-78
2021/12/23 16:47:42;;;;;;;59.92;30.05;;;76.80;2227.20;;;;;;4896651;29;20040;-79
2021/12/23 16:50:10;;;;;;;46.45;29.25;;;76.80;2227.20;;;;;;4897334;29;20037;-78
2021/12/23 16:52:36;;;;;;;48.97;29.40;;;76.80;2227.20;;;;;;4893254;29;20459;-77
2021/12/23 16:55:33;;;;;;;57.60;32.75;;;76.90;2227.20;;;;;;4906543;29;20046;-79
2021/12/23 16:58:10;;;;;;;67.28;34.40;;;76.90;2227.20;;;;;;4922701;29;20057;-79
2021/12/23 17:00:38;;;;;;;51.17;32.05;;;76.90;2227.20;;;;;;4917912;29;20064;-79
2021/12/23 17:03:05;;;;;;;60.22;37.00;;;77.00;2227.20;;;;;;4895864;29;20033;-78
2021/12/23 17:05:37;;;;;;;61.90;32.10;;;77.00;2227.20;;;;;;4917258;29;20052;-79
2021/12/23 17:08:03;;;;;;;57.28;32.78;;;77.00;2227.20;;;;;;4884077;29;20101;-79
2021/12/23 17:10:29;;;;;;;60.08;32.58;;;77.10;2227.20;;;;;;4907910;29;20030;-79
2021/12/23 17:13:05;;;;;;;59.88;35.05;;;77.00;2227.20;;;;;;4907002;29;20029;-79
2021/12/23 17:15:31;;;;;;;;;;;77.00;2227.20;;;;;;4913364;29;20037;-79
2021/12/23 17:18:31;;;;;;;52.70;28.60;;;77.00;2227.20;;;;;;4915434;29;19915;-78
2021/12/23 17:24:07;;;;;;;51.95;32.00;;;77.00;2227.20;;;;;;4905586;29;20060;-78
2021/12/23 17:26:33;;;;;;;59.38;34.08;;;77.00;2227.20;;;;;;4902852;29;20035;-78
2021/12/23 17:29:10;;;;;;;59.50;35.55;;;77.00;2227.20;;;;;;4885257;29;20029;-79
2021/12/23 17:31:38;;;;;;;59.90;35.42;;;77.00;2227.20;;;;;;4891191;29;20035;-78
2021/12/23 17:34:04;;;;;;;61.15;31.95;;;77.00;2227.20;;;;;;4882255;29;20045;-77
2021/12/23 17:36:30;;;;;;;50.08;30.33;;;77.00;2227.20;;;;;;4888045;29;20552;-78
2021/12/23 17:38:58;;;;;;;54.58;30.92;;;77.10;2227.20;;;;;;4899547;29;20029;-78
2021/12/23 17:41:24;;;;;;;51.03;31.17;;;77.00;2227.20;;;;;;4900886;29;20108;-78
2021/12/23 17:43:50;;;;;;;49.65;31.23;;;77.00;2227.20;;;;;;4897639;29;20493;-77
2021/12/23 17:46:16;;;;;;;43.03;28.67;;;77.10;2227.20;;;;;;4897189;29;20501;-78
2021/12/23 17:48:42;;;;;;;52.70;31.23;;;77.10;2227.20;;;;;;4874340;29;20079;-78
2021/12/23 17:51:08;;;;;;;51.08;29.92;;;77.10;2227.20;;;;;;4896070;29;20051;-77
2021/12/23 17:53:34;;;;;;;43.55;27.55;;;77.10;2227.20;;;;;;4870299;29;20037;-77
2021/12/23 17:56:01;;;;;;;40.05;24.88;;;77.10;2227.20;;;;;;4882456;29;20147;-78
2021/12/23 17:58:27;;;;;;;46.47;29.27;;;77.10;2227.20;;;;;;4879805;29;20057;-78
2021/12/23 18:00:54;;;;;;;48.97;28.77;;;77.10;2227.20;;;;;;4884225;29;20045;-77
2021/12/23 18:03:21;;;;;;;44.45;28.33;;;77.10;2227.20;;;;;;4882260;29;20036;-77
2021/12/23 18:05:49;;;;;;;46.22;29.00;;;77.20;2227.20;;;;;;4879847;29;20029;-77
2021/12/23 18:08:18;;;;;;;48.65;28.20;;;77.20;2227.20;;;;;;4880041;29;20044;-77
2021/12/23 18:10:47;;;;;;;46.75;27.58;;;77.20;2227.20;;;;;;4879055;29;20116;-78
2021/12/23 18:13:14;;;;;;;55.88;29.00;;;77.20;2227.20;;;;;;4887529;29;20033;-77
2021/12/23 18:15:40;;;;;;;52.30;30.95;;;77.20;2227.20;;;;;;4881202;29;20072;-76
2021/12/23 18:18:06;;;;;;;51.88;29.85;;;77.20;2227.20;;;;;;4873767;29;20076;-76
2021/12/23 18:20:32;;;;;;;52.70;29.88;;;77.20;2227.20;;;;;;4881356;29;20434;-76
2021/12/23 18:22:59;;;;;;;53.00;30.30;;;77.20;2227.20;;;;;;4889738;29;20033;-77
2021/12/23 18:25:25;;;;;;;51.47;30.50;;;77.20;2227.20;;;;;;4879559;29;20497;-77
2021/12/23 18:27:51;;;;;;;47.80;28.27;;;77.20;2227.20;;;;;;4877471;29;20043;-77
2021/12/23 18:30:19;;;;;;;41.92;27.05;;;77.20;2227.20;;;;;;4887518;29;20037;-78
2021/12/23 18:32:47;;;;;;;55.38;29.80;;;77.20;2227.20;;;;;;4881668;29;20061;-78
2021/12/23 18:35:18;;;;;;;46.72;26.20;;;77.20;2227.20;;;;;;4884121;29;20072;-78
2021/12/23 18:37:48;;;;;;;49.38;30.60;;;77.20;2227.20;;;;;;4875466;29;20064;-78
2021/12/23 18:40:19;;;;;;;47.67;27.80;;;77.20;2227.20;;;;;;4872236;29;20104;-77
2021/12/23 18:42:53;;;;;;;39.75;24.88;;;77.20;2227.20;;;;;;4894636;29;20067;-78
2021/12/23 18:45:22;;;;;;;53.47;30.98;;;77.20;2227.20;;;;;;4878255;29;20033;-78
2021/12/23 18:47:49;;;;;;;53.28;30.60;;;77.20;2227.20;;;;;;4884942;29;20105;-78
2021/12/23 18:50:16;;;;;;;54.17;30.40;;;77.20;2227.20;;;;;;4879383;29;20092;-78
2021/12/23 18:52:53;;;;;;;55.53;30.75;;;77.20;2227.20;;;;;;4876547;29;20057;-80
2021/12/23 18:55:20;;;;;;;44.60;26.30;;;77.20;2227.20;;;;;;4879322;29;20072;-78
2021/12/23 18:57:47;;;;;;;45.17;27.38;;;77.20;2227.20;;;;;;4879857;29;20048;-78
2021/12/23 19:00:19;;;;;;;43.95;26.30;;;77.20;2227.20;;;;;;4878255;29;20034;-78
2021/12/23 19:05:26;;;;;;;36.70;24.55;;;77.20;2227.20;;;;;;4869864;29;20405;-77
2021/12/23 19:07:52;;;;;;;45.13;29.25;;;77.20;2227.20;;;;;;4870421;29;20045;-77
2021/12/23 19:10:18;;;;;;;38.92;23.92;;;77.30;2227.20;;;;;;4872883;29;20057;-77
2021/12/23 19:12:46;;;;;;;41.95;24.88;;;77.30;2227.20;;;;;;4880224;29;20037;-78
2021/12/23 19:15:12;;;;;;;34.95;22.30;;;77.30;2227.20;;;;;;4885230;29;20141;-78
2021/12/23 19:17:38;;;;;;;44.45;25.63;;;77.20;2227.20;;;;;;4887894;29;20478;-78
2021/12/23 19:20:05;;;;;;;42.35;25.08;;;77.20;2227.20;;;;;;4883152;29;20041;-77
2021/12/23 19:22:31;;;;;;;41.67;27.90;;;77.20;2227.20;;;;;;4875055;29;20060;-77
2021/12/23 19:24:57;;;;;;;40.78;25.98;;;77.20;2227.20;;;;;;4890604;29;20041;-80
2021/12/23 19:27:23;;;;;;;42.25;26.08;;;77.20;2227.20;;;;;;4878553;29;20053;-77
2021/12/23 19:29:49;;;;;;;47.17;28.42;;;77.20;2227.20;;;;;;4874983;29;20101;-77
2021/12/23 19:32:17;;;;;;;42.47;27.42;;;77.10;2227.20;;;;;;4878242;29;20042;-77
2021/12/23 19:34:45;;;;;;;45.90;26.90;;;77.20;2227.20;;;;;;4889785;29;20066;-77
2021/12/23 19:37:11;;;;;;;44.95;26.05;;;77.10;2227.20;;;;;;4873669;29;20064;-76
2021/12/23 19:39:40;;;;;;;47.33;26.85;;;77.20;2227.20;;;;;;4885712;29;20037;-77
2021/12/23 19:42:07;;;;;;;39.42;25.25;;;77.20;2227.20;;;;;;4875145;29;20069;-77
2021/12/23 19:44:33;;;;;;;45.00;25.83;;;77.20;2227.20;;;;;;4887246;29;20450;-76
2021/12/23 19:47:00;;;;;;;45.28;28.70;;;77.20;2227.20;;;;;;4887165;29;20092;-78
2021/12/23 19:49:26;;;;;;;48.53;25.35;;;77.20;2227.20;;;;;;4890187;29;20112;-77
2021/12/23 19:51:53;;;;;;;44.70;26.83;;;77.20;2227.20;;;;;;4894345;29;20451;-76
2021/12/23 19:54:20;;;;;;;47.17;29.05;;;77.20;2227.20;;;;;;4884616;29;20040;-76
2021/12/23 19:56:46;;;;;;;47.10;23.88;;;77.30;2227.20;;;;;;4893596;29;20089;-78
2021/12/23 19:59:12;;;;;;;41.88;24.67;;;77.30;2227.20;;;;;;4893788;29;20029;-76
2021/12/23 20:01:38;;;;;;;39.42;24.88;;;77.20;2227.20;;;;;;4888125;29;20688;-78
2021/12/23 20:04:05;;;;;;;37.50;23.85;;;77.30;2227.20;;;;;;4881481;29;20036;-78
2021/12/23 20:06:32;;;;;;;48.03;25.83;;;77.30;2227.20;;;;;;4896019;29;20100;-78
2021/12/23 20:08:58;;;;;;;44.08;25.45;;;77.30;2227.20;;;;;;4881172;29;20051;-77
2021/12/23 20:11:24;;;;;;;39.88;26.77;;;77.30;2227.20;;;;;;4892918;29;20547;-76
2021/12/23 20:13:50;;;;;;;43.10;24.50;;;77.30;2227.20;;;;;;4896469;29;20049;-78
2021/12/23 20:16:16;;;;;;;46.05;24.65;;;77.30;2227.20;;;;;;4893954;29;20040;-78
2021/12/23 20:18:42;;;;;;;37.05;23.33;;;77.20;2227.20;;;;;;4893391;29;20047;-78
2021/12/23 20:21:12;;;;;;;41.58;22.15;;;77.20;2227.20;;;;;;4898407;29;20048;-77
2021/12/23 20:23:38;;;;;;;39.80;22.30;;;77.20;2227.20;;;;;;4890676;29;20045;-76
2021/12/23 20:26:07;;;;;;;42.95;26.27;;;77.30;2227.20;;;;;;4893137;29;20060;-76
2021/12/23 20:28:33;;;;;;;38.40;27.30;;;77.30;2227.20;;;;;;4887912;29;20037;-77
2021/12/23 20:31:00;;;;;;;43.65;26.88;;;77.20;2227.20;;;;;;4882426;29;20404;-76
2021/12/23 20:33:26;;;;;;;43.10;27.25;;;77.30;2227.20;;;;;;4890108;29;20035;-77
2021/12/23 20:35:52;;;;;;;46.85;27.05;;;77.40;2227.20;;;;;;4880177;29;20033;-77
2021/12/23 20:38:18;;;;;;;44.92;26.35;;;77.20;2227.20;;;;;;4891165;29;20045;-77
2021/12/23 20:40:45;;;;;;;44.25;27.85;;;77.30;2227.20;;;;;;4886943;29;20048;-76
2021/12/23 20:43:12;;;;;;;46.30;27.15;;;77.20;2227.20;;;;;;4891255;29;20064;-79
2021/12/23 20:45:38;;;;;;;40.97;26.45;;;77.30;2227.20;;;;;;4890935;29;20037;-78
2021/12/23 20:48:04;;;;;;;39.13;24.42;;;77.20;2227.20;;;;;;4877506;29;20037;-78
2021/12/23 20:50:34;;;;;;;38.58;23.85;;;77.20;2227.20;;;;;;4894281;29;20503;-78
2021/12/23 20:53:02;;;;;;;35.85;22.95;;;77.20;2227.20;;;;;;4879297;29;20033;-78
2021/12/23 20:55:36;;;;;;;41.30;25.08;;;77.10;2227.20;;;;;;4879743;29;20041;-77
2021/12/23 20:58:06;;;;;;;45.72;27.10;;;77.10;2227.20;;;;;;4881944;29;20033;-78
2021/12/23 21:00:33;;;;;;;40.50;25.67;;;77.10;2227.20;;;;;;4885770;29;20040;-78
2021/12/23 21:02:58;;;;;;;40.20;26.60;;;77.10;2227.20;;;;;;4872151;29;20065;-78
2021/12/23 21:05:25;;;;;;;46.65;26.63;;;77.00;2227.20;;;;;;4886945;29;20422;-78
2021/12/23 21:07:51;;;;;;;42.78;25.80;;;77.00;2227.20;;;;;;4888223;29;20489;-78
2021/12/23 21:10:18;;;;;;;41.55;27.80;;;77.10;2227.20;;;;;;4883053;29;20067;-78
2021/12/23 21:12:46;;;;;;;44.63;28.23;;;77.00;2227.20;;;;;;4883366;29;20040;-77
2021/12/23 21:15:13;;;;;;;43.08;26.80;;;77.00;2227.20;;;;;;4880012;29;20476;-77
2021/12/23 21:17:41;;;;;;;43.53;27.23;;;77.10;2227.20;;;;;;4875419;29;20056;-79
2021/12/23 21:20:10;;;;;;;46.67;25.67;;;77.00;2227.20;;;;;;4883565;29;20125;-78
2021/12/23 21:22:36;;;;;;;38.63;24.98;;;77.00;2227.20;;;;;;4883947;29;20456;-79
2021/12/23 21:25:05;;;;;;;40.67;25.05;;;77.00;2227.20;;;;;;4906984;29;20849;-76
2021/12/23 21:27:30;;;;;;;50.88;27.40;;;77.00;2227.20;;;;;;4884654;29;20123;-79
2021/12/23 21:29:57;;;;;;;40.35;24.02;;;77.00;2227.20;;;;;;4889375;29;20060;-79
2021/12/23 21:32:23;;;;;;;44.05;25.67;;;77.00;2227.20;;;;;;4904721;29;20473;-79
2021/12/23 21:34:49;;;;;;;43.92;26.15;;;77.00;2227.20;;;;;;4886771;29;20049;-79
2021/12/23 21:37:15;;;;;;;43.55;27.67;;;77.00;2227.20;;;;;;4898028;29;20036;-79
2021/12/23 21:39:42;;;;;;;41.13;25.77;;;77.10;2227.20;;;;;;4892993;29;20056;-79
2021/12/23 21:42:09;;;;;;;44.38;26.63;;;77.10;2227.20;;;;;;4894738;29;20048;-79
2021/12/23 21:44:36;;;;;;;45.90;26.98;;;77.00;2227.20;;;;;;4901009;29;20056;-78
2021/12/23 21:47:03;;;;;;;39.05;24.73;;;77.00;2227.20;;;;;;4905415;29;20079;-79
2021/12/23 21:49:29;;;;;;;49.50;28.75;;;77.10;2227.20;;;;;;4897978;29;20039;-79
2021/12/23 21:51:58;;;;;;;46.47;28.50;;;77.00;2227.20;;;;;;4861840;29;20045;-77
2021/12/23 21:54:33;;;;;;;47.40;27.92;;;77.00;2227.20;;;;;;4875637;29;20043;-78
2021/12/23 21:56:58;;;;;;;51.45;30.30;;;77.00;2227.20;;;;;;4879887;29;20069;-78
2021/12/23 21:59:25;;;;;;;42.15;27.52;;;77.00;2227.20;;;;;;4876247;29;20143;-78
2021/12/23 22:01:51;;;;;;;44.50;27.88;;;77.10;2227.20;;;;;;4901219;29;20069;-78
2021/12/23 22:04:21;;;;;;;40.28;26.05;;;77.10;2227.20;;;;;;4904423;29;20123;-79
2021/12/23 22:06:47;;;;;;;43.47;28.00;;;77.10;2227.20;;;;;;4896233;29;20045;-79
2021/12/23 22:09:47;;;;;;;44.70;26.85;;;77.10;2227.20;;;;;;4902274;29;20037;-79
2021/12/23 22:12:14;;;;;;;42.53;27.70;;;77.10;2227.20;;;;;;4892357;29;20033;-79
2021/12/23 22:15:11;;;;;;;41.85;26.95;;;77.00;2227.20;;;;;;4918778;29;20040;-79
2021/12/23 22:18:22;;;;;;;43.08;27.88;;;77.00;2227.20;;;;;;4891244;29;20041;-81
2021/12/23 22:20:47;;;;;;;48.90;27.98;;;77.00;2227.20;;;;;;4890062;29;20044;-77
2021/12/23 22:23:14;;;;;;;45.45;28.70;;;76.90;2227.20;;;;;;4881437;29;20044;-77
2021/12/23 22:25:40;;;;;;;44.50;27.15;;;76.90;2227.20;;;;;;4877794;29;20033;-77
2021/12/23 22:28:06;;;;;;;41.67;26.98;;;76.80;2227.20;;;;;;4886816;29;20036;-77
2021/12/23 22:30:33;;;;;;;57.00;33.58;;;76.80;2227.20;;;;;;4895361;29;20450;-78
2021/12/23 22:33:00;;;;;;;51.85;28.55;;;76.80;2227.20;;;;;;4888509;29;20047;-78
2021/12/23 22:35:26;;;;;;;46.65;27.48;;;76.80;2227.20;;;;;;4889197;29;20047;-79
2021/12/23 22:37:52;;;;;;;52.25;27.35;;;76.80;2227.20;;;;;;4884963;29;20033;-77
2021/12/23 22:40:19;;;;;;;39.95;27.02;;;76.80;2227.20;;;;;;4883241;29;20056;-77
2021/12/23 22:42:45;;;;;;;43.63;26.75;;;76.80;2227.20;;;;;;4891634;29;20079;-77
2021/12/23 22:45:13;;;;;;;43.80;26.98;;;76.80;2227.20;;;;;;4898594;29;20036;-77
2021/12/23 22:47:40;;;;;;;41.53;27.70;;;76.80;2227.20;;;;;;4889861;29;20045;-77
2021/12/23 22:50:07;;;;;;;45.22;29.05;;;76.80;2227.20;;;;;;4888826;29;20049;-78
2021/12/23 22:52:33;;;;;;;54.90;32.78;;;76.80;2227.20;;;;;;4888719;29;20400;-78
2021/12/23 22:54:59;;;;;;;49.08;29.48;;;76.80;2227.20;;;;;;4880421;29;20041;-76
2021/12/23 22:57:29;;;;;;;49.25;31.02;;;76.80;2227.20;;;;;;4889789;29;20033;-77
2021/12/23 22:59:55;;;;;;;48.40;28.35;;;76.80;2227.20;;;;;;4890432;29;20036;-78
2021/12/23 23:02:21;;;;;;;46.25;28.27;;;76.90;2227.20;;;;;;4891287;29;20033;-78
2021/12/23 23:04:48;;;;;;;47.22;30.55;;;76.90;2227.20;;;;;;4879823;29;20045;-78
2021/12/23 23:07:14;;;;;;;47.30;27.75;;;76.90;2227.20;;;;;;4879067;29;20524;-79
2021/12/23 23:09:41;;;;;;;57.28;28.65;;;76.90;2227.20;;;;;;4883949;29;20189;-79
2021/12/23 23:12:09;;;;;;;50.47;29.10;;;77.20;2227.20;;;;;;4869304;29;20036;-78
2021/12/23 23:17:09;;;;;;;54.10;31.23;;;76.80;2227.20;;;;;;4889086;29;20100;-77
2021/12/23 23:19:35;;;;;;;56.22;32.42;;;76.90;2227.20;;;;;;4884577;29;20040;-78
2021/12/23 23:22:02;;;;;;;49.30;29.33;;;76.90;2227.20;;;;;;4890446;29;20096;-79
2021/12/23 23:24:38;;;;;;;41.13;27.67;;;76.90;2227.20;;;;;;4889202;29;20072;-80
2021/12/23 23:27:13;;;;;;;;;;;76.90;2227.20;;;;;;4894526;29;20038;-79
2021/12/23 23:35:22;;;;;;;45.15;28.25;;;76.90;2227.20;;;;;;4887361;29;20069;-77
2021/12/23 23:40:53;;;;;;;53.50;28.27;;;76.90;2227.20;;;;;;4911892;29;20099;-80
2021/12/23 23:43:46;;;;;;;56.78;31.75;;;76.90;2227.20;;;;;;4890991;29;20043;-79
2021/12/23 23:46:29;;;;;;;54.15;34.35;;;77.00;2227.20;;;;;;4894526;29;20032;-79
2021/12/23 23:48:55;;;;;;;51.67;30.92;;;77.00;2227.20;;;;;;4905075;29;20036;-79
2021/12/23 23:51:28;;;;;;;50.42;30.15;;;77.00;2227.20;;;;;;4913092;29;20028;-79
2021/12/23 23:53:55;;;;;;;50.40;29.55;;;77.00;2227.20;;;;;;4918104;29;20044;-79
2021/12/23 23:56:22;;;;;;;50.55;31.40;;;77.10;2227.20;;;;;;4904609;29;20047;-78
2021/12/23 23:58:56;;;;;;;50.95;31.63;;;77.10;2227.20;;;;;;4910857;29;20040;-80
